sensor_id;sensor_type;location;lat;lon;timestamp;pressure;altitude;pressure_sealevel;temperature;humidity
11643;BME280;5877;50.930;6.918;2023-02-15T00:00:08;101843.53;;;-1.79;81.54
11643;BME280;5877;50.930;6.918;2023-02-15T00:05:08;101545.34;;;-3.47;81.41
11643;BME280;5877;50.930;6.918;2023-02-15T00:10:01;102045.31;;;-0.51;81.96
11643;BME280;5877;50.930;6.918;2023-02-15T00:14:54;101807.81;;;-1.83;81.44
11643;BME280;5877;50.930;6.918;2023-02-15T00:19:49;101902.97;;;-1.31;82.17
11643;BME280;5877;50.930;6.918;2023-02-15T00:24:43;101833.66;;;-1.72;82.02
11643;BME280;5877;50.930;6.918;2023-02-15T00:29:38;102149.53;;;0.21;81.77
11643;BME280;5877;50.930;6.918;2023-02-15T00:34:31;102108.66;;;-0.35;82.29
11643;BME280;5877;50.930;6.918;2023-02-15T00:57:56;102367.31;;;1.45;82.22
11643;BME280;5877;50.930;6.918;2023-02-15T01:02:51;102235.94;;;0.53;82.14
11643;BME280;5877;50.930;6.918;2023-02-15T01:07:44;101854.25;;;-1.72;82.91
11643;BME280;5877;50.930;6.918;2023-02-15T01:12:37;101889.78;;;-1.65;82.24
11643;BME280;5877;50.930;6.918;2023-02-15T01:17:31;102344.13;;;1.20;82.90
11643;BME280;5877;50.930;6.918;2023-02-15T01:22:24;101898.75;;;-1.57;82.65
11643;BME280;5877;50.930;6.918;2023-02-15T01:27:18;101850.59;;;-1.95;82.99
11643;BME280;5877;50.930;6.918;2023-02-15T01:32:14;101941.50;;;-1.29;82.49
11643;BME280;5877;50.930;6.918;2023-02-15T01:37:07;101984.16;;;-1.13;83.48
11643;BME280;5877;50.930;6.918;2023-02-15T01:42:10;101950.47;;;-1.35;83.10
11643;BME280;5877;50.930;6.918;2023-02-15T01:47:03;101752.06;;;-2.60;82.98
11643;BME280;5877;50.930;6.918;2023-02-15T01:51:56;101856.25;;;-2.03;83.05
11643;BME280;5877;50.930;6.918;2023-02-15T01:56:49;101740.91;;;-2.74;83.57
11643;BME280;5877;50.930;6.918;2023-02-15T02:01:41;102265.69;;;0.59;83.27
11643;BME280;5877;50.930;6.918;2023-02-15T02:06:36;101655.00;;;-3.36;83.61
11643;BME280;5877;50.930;6.918;2023-02-15T02:11:30;101856.34;;;-2.04;83.64
11643;BME280;5877;50.930;6.918;2023-02-15T02:16:25;102329.09;;;0.88;83.98
11643;BME280;5877;50.930;6.918;2023-02-15T02:26:47;102320.94;;;0.82;84.66
11643;BME280;5877;50.930;6.918;2023-02-15T02:37:24;102109.34;;;-0.71;84.54
11643;BME280;5877;50.930;6.918;2023-02-15T02:42:41;102172.31;;;-0.10;84.81
11643;BME280;5877;50.930;6.918;2023-02-15T02:47:40;101996.53;;;-1.18;84.26
11643;BME280;5877;50.930;6.918;2023-02-15T02:52:47;101930.44;;;-1.70;84.80
11643;BME280;5877;50.930;6.918;2023-02-15T02:57:46;101992.72;;;-1.25;85.09
11643;BME280;5877;50.930;6.918;2023-02-15T03:02:44;102267.53;;;0.57;85.10
11643;BME280;5877;50.930;6.918;2023-02-15T03:07:38;102174.38;;;-0.27;85.55
11643;BME280;5877;50.930;6.918;2023-02-15T03:12:34;102273.22;;;0.49;85.37
11643;BME280;5877;50.930;6.918;2023-02-15T03:17:32;102069.94;;;-0.85;85.69
11643;BME280;5877;50.930;6.918;2023-02-15T03:22:33;102096.69;;;-0.61;85.17
11643;BME280;5877;50.930;6.918;2023-02-15T03:27:34;102110.09;;;-0.43;84.91
11643;BME280;5877;50.930;6.918;2023-02-15T03:32:31;101732.56;;;-2.77;84.97
11643;BME280;5877;50.930;6.918;2023-02-15T03:42:35;102029.00;;;-1.03;85.75
11643;BME280;5877;50.930;6.918;2023-02-15T03:47:31;102102.16;;;-0.53;85.32
11643;BME280;5877;50.930;6.918;2023-02-15T03:52:27;101885.69;;;-1.94;85.48
11643;BME280;5877;50.930;6.918;2023-02-15T03:57:25;102259.50;;;0.36;85.92
11643;BME280;5877;50.930;6.918;2023-02-15T04:08:08;101511.03;;;-4.27;84.94
11643;BME280;5877;50.930;6.918;2023-02-15T04:13:00;101904.59;;;-2.08;85.96
11643;BME280;5877;50.930;6.918;2023-02-15T04:17:52;101752.34;;;-2.92;84.97
11643;BME280;5877;50.930;6.918;2023-02-15T04:22:45;102245.97;;;0.32;85.41
11643;BME280;5877;50.930;6.918;2023-02-15T04:27:56;102282.13;;;0.32;85.36
11643;BME280;5877;50.930;6.918;2023-02-15T04:32:49;102153.22;;;-0.32;85.58
11643;BME280;5877;50.930;6.918;2023-02-15T04:37:42;102250.41;;;0.30;85.40
11643;BME280;5877;50.930;6.918;2023-02-15T04:42:34;101802.53;;;-2.47;85.17
11643;BME280;5877;50.930;6.918;2023-02-15T04:47:27;101974.53;;;-1.49;85.46
11643;BME280;5877;50.930;6.918;2023-02-15T04:52:21;102105.13;;;-0.59;85.36
11643;BME280;5877;50.930;6.918;2023-02-15T04:57:15;101500.72;;;-4.39;84.94
11643;BME280;5877;50.930;6.918;2023-02-15T05:02:08;101939.66;;;-1.80;85.28
11643;BME280;5877;50.930;6.918;2023-02-15T05:07:03;101467.50;;;-4.55;84.61
11643;BME280;5877;50.930;6.918;2023-02-15T05:11:56;101875.41;;;-1.94;85.38
11643;BME280;5877;50.930;6.918;2023-02-15T05:16:48;101809.22;;;-2.44;85.57
11643;BME280;5877;50.930;6.918;2023-02-15T05:21:40;102061.59;;;-0.76;85.33
11643;BME280;5877;50.930;6.918;2023-02-15T05:26:33;102129.47;;;-0.63;85.41
11643;BME280;5877;50.930;6.918;2023-02-15T05:31:43;102070.47;;;-0.80;85.41
11643;BME280;5877;50.930;6.918;2023-02-15T05:36:39;101700.81;;;-3.30;85.39
11643;BME280;5877;50.930;6.918;2023-02-15T05:41:32;102071.69;;;-0.86;85.50
11643;BME280;5877;50.930;6.918;2023-02-15T05:46:26;101678.34;;;-3.27;84.91
11643;BME280;5877;50.930;6.918;2023-02-15T05:51:18;101865.91;;;-2.06;85.17
11643;BME280;5877;50.930;6.918;2023-02-15T05:56:12;101965.25;;;-1.64;85.43
11643;BME280;5877;50.930;6.918;2023-02-15T06:01:12;101781.47;;;-2.79;85.02
11643;BME280;5877;50.930;6.918;2023-02-15T06:06:05;102224.22;;;-0.02;85.90
11643;BME280;5877;50.930;6.918;2023-02-15T06:10:59;101964.84;;;-1.58;85.55
11643;BME280;5877;50.930;6.918;2023-02-15T06:15:51;102055.38;;;-1.12;85.35
11643;BME280;5877;50.930;6.918;2023-02-15T06:27:15;101901.34;;;-1.97;85.22
11643;BME280;5877;50.930;6.918;2023-02-15T06:32:08;101713.53;;;-3.14;85.61
11643;BME280;5877;50.930;6.918;2023-02-15T06:37:01;101451.63;;;-4.88;84.73
11643;BME280;5877;50.930;6.918;2023-02-15T06:41:53;102254.38;;;-0.02;85.44
11643;BME280;5877;50.930;6.918;2023-02-15T06:46:46;101844.00;;;-2.39;85.10
11643;BME280;5877;50.930;6.918;2023-02-15T06:51:38;101765.09;;;-2.90;84.53
11643;BME280;5877;50.930;6.918;2023-02-15T06:56:31;102222.56;;;-0.03;85.15
11643;BME280;5877;50.930;6.918;2023-02-15T07:01:24;101731.38;;;-2.99;84.35
11643;BME280;5877;50.930;6.918;2023-02-15T07:06:16;102030.47;;;-0.99;84.16
11643;BME280;5877;50.930;6.918;2023-02-15T07:11:08;102211.59;;;0.19;84.07
11643;BME280;5877;50.930;6.918;2023-02-15T07:16:20;101919.84;;;-1.65;83.31
11643;BME280;5877;50.930;6.918;2023-02-15T07:21:13;101562.78;;;-3.93;82.60
11643;BME280;5877;50.930;6.918;2023-02-15T07:26:06;101717.56;;;-2.83;82.30
11643;BME280;5877;50.930;6.918;2023-02-15T07:31:01;101969.31;;;-1.22;82.31
11643;BME280;5877;50.930;6.918;2023-02-15T07:35:56;102205.81;;;0.65;82.46
11643;BME280;5877;50.930;6.918;2023-02-15T07:40:50;101960.97;;;0.69;76.40
11643;BME280;5877;50.930;6.918;2023-02-15T07:45:42;101824.75;;;0.93;71.75
11643;BME280;5877;50.930;6.918;2023-02-15T07:50:35;101786.19;;;1.44;69.12
11643;BME280;5877;50.930;6.918;2023-02-15T07:55:27;102160.97;;;4.06;67.43
11643;BME280;5877;50.930;6.918;2023-02-15T08:00:20;102165.94;;;4.78;65.62
11643;BME280;5877;50.930;6.918;2023-02-15T08:05:21;101769.88;;;2.77;62.32
11643;BME280;5877;50.930;6.918;2023-02-15T08:10:13;102010.56;;;4.90;61.56
11643;BME280;5877;50.930;6.918;2023-02-15T08:15:25;102166.88;;;6.29;59.77
11643;BME280;5877;50.930;6.918;2023-02-15T08:20:17;102146.13;;;6.09;59.82
11643;BME280;5877;50.930;6.918;2023-02-15T08:25:09;101843.34;;;4.61;58.46
11643;BME280;5877;50.930;6.918;2023-02-15T08:30:01;101931.69;;;5.44;57.99
11643;BME280;5877;50.930;6.918;2023-02-15T08:34:53;101992.94;;;5.48;59.28
11643;BME280;5877;50.930;6.918;2023-02-15T08:39:44;102086.22;;;6.00;59.21
11643;BME280;5877;50.930;6.918;2023-02-15T08:44:37;101909.00;;;5.37;57.12
11643;BME280;5877;50.930;6.918;2023-02-15T08:49:29;101738.19;;;4.73;56.40
11643;BME280;5877;50.930;6.918;2023-02-15T08:54:21;102054.31;;;6.87;55.20
11643;BME280;5877;50.930;6.918;2023-02-15T08:59:20;102057.84;;;7.03;56.02
11643;BME280;5877;50.930;6.918;2023-02-15T09:04:13;102019.25;;;7.15;54.24
11643;BME280;5877;50.930;6.918;2023-02-15T09:09:07;102128.84;;;7.51;55.90
11643;BME280;5877;50.930;6.918;2023-02-15T09:14:05;101740.44;;;5.39;54.56
11643;BME280;5877;50.930;6.918;2023-02-15T09:18:58;101849.28;;;5.71;56.16
11643;BME280;5877;50.930;6.918;2023-02-15T09:23:55;101687.81;;;4.74;54.75
11643;BME280;5877;50.930;6.918;2023-02-15T09:28:51;102030.03;;;6.68;55.79
11643;BME280;5877;50.930;6.918;2023-02-15T09:33:45;102050.22;;;6.31;57.46
11643;BME280;5877;50.930;6.918;2023-02-15T09:38:37;101887.97;;;5.66;56.43
11643;BME280;5877;50.930;6.918;2023-02-15T09:43:59;102133.63;;;6.76;57.57
11643;BME280;5877;50.930;6.918;2023-02-15T09:48:59;102144.88;;;7.12;56.80
11643;BME280;5877;50.930;6.918;2023-02-15T09:59:23;101625.06;;;3.49;58.32
11643;BME280;5877;50.930;6.918;2023-02-15T10:25:24;101598.91;;;3.14;59.87
11643;BME280;5877;50.930;6.918;2023-02-15T10:30:50;101814.66;;;4.52;59.92
11643;BME280;5877;50.930;6.918;2023-02-15T10:35:58;102126.84;;;6.65;59.85
11643;BME280;5877;50.930;6.918;2023-02-15T10:51:48;102111.00;;;7.20;58.82
11643;BME280;5877;50.930;6.918;2023-02-15T11:06:58;102089.91;;;7.13;59.10
11643;BME280;5877;50.930;6.918;2023-02-15T11:11:53;101996.41;;;6.65;59.16
11643;BME280;5877;50.930;6.918;2023-02-15T11:16:55;101809.53;;;5.69;58.46
11643;BME280;5877;50.930;6.918;2023-02-15T11:21:53;101861.78;;;6.46;58.23
11643;BME280;5877;50.930;6.918;2023-02-15T11:26:54;101900.75;;;7.08;57.34
11643;BME280;5877;50.930;6.918;2023-02-15T11:31:55;101791.91;;;6.58;56.65
11643;BME280;5877;50.930;6.918;2023-02-15T11:36:50;101946.66;;;7.69;56.54
11643;BME280;5877;50.930;6.918;2023-02-15T11:42:15;102056.16;;;8.71;55.48
11643;BME280;5877;50.930;6.918;2023-02-15T11:47:12;101915.31;;;7.93;55.47
11643;BME280;5877;50.930;6.918;2023-02-15T11:52:07;101802.25;;;7.26;55.51
11643;BME280;5877;50.930;6.918;2023-02-15T11:57:19;102032.69;;;9.18;54.78
11643;BME280;5877;50.930;6.918;2023-02-15T12:02:20;101712.00;;;7.24;54.23
11643;BME280;5877;50.930;6.918;2023-02-15T12:12:28;101796.97;;;8.24;53.52
11643;BME280;5877;50.930;6.918;2023-02-15T12:17:22;101720.63;;;7.73;52.89
11643;BME280;5877;50.930;6.918;2023-02-15T12:22:23;101804.94;;;8.55;53.66
11643;BME280;5877;50.930;6.918;2023-02-15T12:27:22;101897.09;;;9.28;53.23
11643;BME280;5877;50.930;6.918;2023-02-15T12:32:34;101685.66;;;8.21;52.68
11643;BME280;5877;50.930;6.918;2023-02-15T12:37:29;101834.91;;;9.22;52.89
11643;BME280;5877;50.930;6.918;2023-02-15T12:42:25;101667.03;;;8.24;52.42
11643;BME280;5877;50.930;6.918;2023-02-15T12:47:19;101928.16;;;10.16;52.41
11643;BME280;5877;50.930;6.918;2023-02-15T12:57:25;101850.13;;;9.95;51.15
11643;BME280;5877;50.930;6.918;2023-02-15T13:02:44;101954.81;;;10.80;51.31
11643;BME280;5877;50.930;6.918;2023-02-15T13:07:38;101653.13;;;9.08;50.84
11643;BME280;5877;50.930;6.918;2023-02-15T13:12:31;101742.13;;;9.77;50.52
11643;BME280;5877;50.930;6.918;2023-02-15T13:17:26;101887.25;;;10.59;51.04
11643;BME280;5877;50.930;6.918;2023-02-15T13:22:26;101792.53;;;10.17;50.85
11643;BME280;5877;50.930;6.918;2023-02-15T13:27:21;101685.47;;;9.38;50.80
11643;BME280;5877;50.930;6.918;2023-02-15T13:32:34;101919.75;;;11.17;50.41
11643;BME280;5877;50.930;6.918;2023-02-15T13:42:45;101860.50;;;11.00;49.37
11643;BME280;5877;50.930;6.918;2023-02-15T14:24:30;101668.00;;;9.98;50.30
11643;BME280;5877;50.930;6.918;2023-02-15T14:34:44;101781.97;;;10.54;50.03
11643;BME280;5877;50.930;6.918;2023-02-15T14:45:04;101637.50;;;9.53;50.80
11643;BME280;5877;50.930;6.918;2023-02-15T14:49:58;101572.31;;;9.05;51.11
11643;BME280;5877;50.930;6.918;2023-02-15T14:59:59;101663.53;;;9.54;52.02
11643;BME280;5877;50.930;6.918;2023-02-15T15:09:45;101564.53;;;8.74;51.97
11643;BME280;5877;50.930;6.918;2023-02-15T15:14:41;101846.84;;;10.46;52.84
11643;BME280;5877;50.930;6.918;2023-02-15T15:29:41;101863.69;;;10.51;53.40
11643;BME280;5877;50.930;6.918;2023-02-15T15:45:35;101857.72;;;10.28;54.67
11643;BME280;5877;50.930;6.918;2023-02-15T15:50:30;101593.56;;;8.42;55.14
11643;BME280;5877;50.930;6.918;2023-02-15T15:55:25;101763.88;;;9.40;55.38
11643;BME280;5877;50.930;6.918;2023-02-15T16:00:33;101866.84;;;9.94;55.96
11643;BME280;5877;50.930;6.918;2023-02-15T16:05:26;101555.72;;;7.91;56.35
11643;BME280;5877;50.930;6.918;2023-02-15T16:10:26;101878.16;;;9.72;56.78
11643;BME280;5877;50.930;6.918;2023-02-15T16:15:22;101776.91;;;9.02;57.38
11643;BME280;5877;50.930;6.918;2023-02-15T16:20:24;101793.81;;;8.92;57.78
11643;BME280;5877;50.930;6.918;2023-02-15T16:30:34;101521.59;;;6.98;58.47
11643;BME280;5877;50.930;6.918;2023-02-15T16:35:27;101319.56;;;5.55;59.20
11643;BME280;5877;50.930;6.918;2023-02-15T16:45:18;101869.47;;;8.78;60.23
11643;BME280;5877;50.930;6.918;2023-02-15T16:50:20;101689.78;;;7.44;60.46
11643;BME280;5877;50.930;6.918;2023-02-15T16:55:28;101627.31;;;6.94;61.11
11643;BME280;5877;50.930;6.918;2023-02-15T17:00:26;101789.00;;;8.01;61.30
11643;BME280;5877;50.930;6.918;2023-02-15T17:05:19;101460.22;;;5.72;61.45
11643;BME280;5877;50.930;6.918;2023-02-15T17:20:57;101618.94;;;6.49;62.05
11643;BME280;5877;50.930;6.918;2023-02-15T17:25:50;101681.25;;;6.77;62.69
11643;BME280;5877;50.930;6.918;2023-02-15T17:30:43;101646.63;;;6.42;62.46
11643;BME280;5877;50.930;6.918;2023-02-15T17:35:37;101616.69;;;6.04;63.24
11643;BME280;5877;50.930;6.918;2023-02-15T17:40:33;101898.81;;;7.76;63.37
11643;BME280;5877;50.930;6.918;2023-02-15T17:45:30;101897.66;;;7.63;64.48
11643;BME280;5877;50.930;6.918;2023-02-15T17:50:26;101581.59;;;5.57;64.35
11643;BME280;5877;50.930;6.918;2023-02-15T17:55:20;101483.16;;;4.92;64.16
11643;BME280;5877;50.930;6.918;2023-02-15T18:00:36;101916.25;;;7.52;65.11
11643;BME280;5877;50.930;6.918;2023-02-15T18:05:48;101515.25;;;5.01;64.06
11643;BME280;5877;50.930;6.918;2023-02-15T18:10:59;101622.38;;;5.48;64.75
11643;BME280;5877;50.930;6.918;2023-02-15T18:16:16;101769.03;;;6.44;64.50
11643;BME280;5877;50.930;6.918;2023-02-15T18:21:11;101361.75;;;3.97;64.40
11643;BME280;5877;50.930;6.918;2023-02-15T18:26:03;101809.72;;;6.63;65.04
11643;BME280;5877;50.930;6.918;2023-02-15T18:30:55;101857.53;;;6.71;65.21
11643;BME280;5877;50.930;6.918;2023-02-15T18:35:46;101919.09;;;7.24;65.46
11643;BME280;5877;50.930;6.918;2023-02-15T18:40:41;101568.78;;;4.85;65.58
11643;BME280;5877;50.930;6.918;2023-02-15T18:45:33;101567.81;;;4.86;65.66
11643;BME280;5877;50.930;6.918;2023-02-15T18:50:31;101802.69;;;6.29;65.49
11643;BME280;5877;50.930;6.918;2023-02-15T18:55:26;101912.44;;;6.96;66.05
11643;BME280;5877;50.930;6.918;2023-02-15T19:00:26;101932.66;;;6.94;66.75
11643;BME280;5877;50.930;6.918;2023-02-15T19:05:24;101327.59;;;3.03;65.94
11643;BME280;5877;50.930;6.918;2023-02-15T19:10:26;101605.72;;;4.71;66.30
11643;BME280;5877;50.930;6.918;2023-02-15T19:15:28;101724.16;;;5.37;66.86
11643;BME280;5877;50.930;6.918;2023-02-15T19:20:30;101695.34;;;4.95;67.02
11643;BME280;5877;50.930;6.918;2023-02-15T19:25:31;101659.50;;;4.71;67.37
11643;BME280;5877;50.930;6.918;2023-02-15T19:30:27;101930.91;;;6.50;67.24
11643;BME280;5877;50.930;6.918;2023-02-15T19:35:23;101510.63;;;3.70;67.90
11643;BME280;5877;50.930;6.918;2023-02-15T19:40:19;101711.25;;;4.92;68.66
11643;BME280;5877;50.930;6.918;2023-02-15T19:45:13;101665.56;;;4.44;67.99
11643;BME280;5877;50.930;6.918;2023-02-15T19:50:06;101661.75;;;4.38;68.77
11643;BME280;5877;50.930;6.918;2023-02-15T19:59:49;101776.31;;;5.09;68.67
11643;BME280;5877;50.930;6.918;2023-02-15T20:04:41;101947.13;;;6.18;68.80
11643;BME280;5877;50.930;6.918;2023-02-15T20:09:34;101727.09;;;4.53;69.27
11643;BME280;5877;50.930;6.918;2023-02-15T20:14:31;101738.97;;;4.55;68.98
11643;BME280;5877;50.930;6.918;2023-02-15T20:19:23;101944.97;;;5.96;69.73
11643;BME280;5877;50.930;6.918;2023-02-15T20:24:17;101551.22;;;3.34;69.43
11643;BME280;5877;50.930;6.918;2023-02-15T20:29:14;101703.19;;;4.12;69.79
11643;BME280;5877;50.930;6.918;2023-02-15T20:34:07;101885.31;;;5.30;69.86
11643;BME280;5877;50.930;6.918;2023-02-15T20:39:01;101610.72;;;3.45;70.10
11643;BME280;5877;50.930;6.918;2023-02-15T20:43:54;101569.81;;;3.20;70.21
11643;BME280;5877;50.930;6.918;2023-02-15T20:48:46;101637.91;;;3.51;70.12
11643;BME280;5877;50.930;6.918;2023-02-15T20:53:38;101720.59;;;3.92;70.16
11643;BME280;5877;50.930;6.918;2023-02-15T20:58:30;101923.94;;;5.35;69.99
11643;BME280;5877;50.930;6.918;2023-02-15T21:03:24;101610.78;;;3.26;69.87
11643;BME280;5877;50.930;6.918;2023-02-15T21:08:20;101904.81;;;4.99;70.35
11643;BME280;5877;50.930;6.918;2023-02-15T21:13:33;101965.16;;;5.39;70.79
11643;BME280;5877;50.930;6.918;2023-02-15T21:18:32;101976.53;;;5.38;70.95
11643;BME280;5877;50.930;6.918;2023-02-15T21:23:35;101730.31;;;3.90;70.41
11643;BME280;5877;50.930;6.918;2023-02-15T21:28:28;101861.00;;;4.67;71.02
11643;BME280;5877;50.930;6.918;2023-02-15T21:33:20;101978.75;;;5.33;70.67
11643;BME280;5877;50.930;6.918;2023-02-15T21:38:17;101942.22;;;4.98;70.96
11643;BME280;5877;50.930;6.918;2023-02-15T21:43:22;101704.03;;;3.47;71.21
11643;BME280;5877;50.930;6.918;2023-02-15T21:48:33;101490.78;;;2.00;71.04
11643;BME280;5877;50.930;6.918;2023-02-15T21:53:33;101890.97;;;4.61;70.81
11643;BME280;5877;50.930;6.918;2023-02-15T21:58:29;101463.38;;;1.78;70.79
11643;BME280;5877;50.930;6.918;2023-02-15T22:03:23;101951.16;;;4.85;71.45
11643;BME280;5877;50.930;6.918;2023-02-15T22:08:15;101603.03;;;2.49;71.29
11643;BME280;5877;50.930;6.918;2023-02-15T22:13:10;101541.00;;;2.38;71.19
11643;BME280;5877;50.930;6.918;2023-02-15T22:18:04;101659.25;;;2.87;72.08
11643;BME280;5877;50.930;6.918;2023-02-15T22:22:56;101776.81;;;3.74;71.59
11643;BME280;5877;50.930;6.918;2023-02-15T22:27:49;101479.44;;;1.82;72.03
11643;BME280;5877;50.930;6.918;2023-02-15T22:32:41;101376.16;;;1.00;72.59
11643;BME280;5877;50.930;6.918;2023-02-15T22:37:33;101705.66;;;2.90;72.16
11643;BME280;5877;50.930;6.918;2023-02-15T22:42:25;101586.34;;;2.22;72.20
11643;BME280;5877;50.930;6.918;2023-02-15T22:47:24;101756.19;;;3.15;72.52
11643;BME280;5877;50.930;6.918;2023-02-15T22:52:17;101626.06;;;2.33;72.38
11643;BME280;5877;50.930;6.918;2023-02-15T22:57:22;101721.84;;;2.73;73.05
11643;BME280;5877;50.930;6.918;2023-02-15T23:02:16;101696.34;;;2.68;72.91
11643;BME280;5877;50.930;6.918;2023-02-15T23:07:12;101796.50;;;3.38;72.63
11643;BME280;5877;50.930;6.918;2023-02-15T23:17:07;101635.31;;;2.25;72.89
11643;BME280;5877;50.930;6.918;2023-02-15T23:21:59;101459.91;;;0.88;72.97
11643;BME280;5877;50.930;6.918;2023-02-15T23:26:51;101982.41;;;4.28;73.17
11643;BME280;5877;50.930;6.918;2023-02-15T23:31:46;101463.22;;;1.00;72.81
11643;BME280;5877;50.930;6.918;2023-02-15T23:36:39;101491.41;;;1.03;73.01
11643;BME280;5877;50.930;6.918;2023-02-15T23:41:30;101580.88;;;1.66;73.17
11643;BME280;5877;50.930;6.918;2023-02-15T23:46:27;101971.19;;;4.08;73.42
11643;BME280;5877;50.930;6.918;2023-02-15T23:51:21;101973.50;;;4.01;73.74
11643;BME280;5877;50.930;6.918;2023-02-15T23:56:14;101737.59;;;2.41;74.58
